createdAt,value
2019-04-26T00:02:48.735Z,18.72
2019-04-26T00:05:52.336Z,18.63
2019-04-26T00:08:57.570Z,18.60
2019-04-26T00:12:03.297Z,18.48
2019-04-26T00:15:29.115Z,18.40
2019-04-26T00:18:33.262Z,18.28
2019-04-26T00:21:38.498Z,18.25
2019-04-26T00:24:42.343Z,18.23
2019-04-26T00:27:45.955Z,18.19
2019-04-26T00:30:49.550Z,18.05
2019-04-26T00:33:53.145Z,17.96
2019-04-26T00:36:58.401Z,17.90
2019-04-26T00:40:05.312Z,17.88
2019-04-26T00:43:09.444Z,17.80
2019-04-26T00:46:14.945Z,17.77
2019-04-26T00:49:21.198Z,17.74
2019-04-26T00:52:28.996Z,17.62
2019-04-26T00:55:34.503Z,17.57
2019-04-26T00:58:40.658Z,17.55
2019-04-26T01:01:46.219Z,17.48
2019-04-26T01:04:49.922Z,17.40
2019-04-26T01:07:55.337Z,17.37
2019-04-26T01:10:59.043Z,17.36
2019-04-26T01:14:02.899Z,17.32
2019-04-26T01:17:08.983Z,17.30
2019-04-26T01:20:13.756Z,17.31
2019-04-26T01:23:20.939Z,17.24
2019-04-26T01:26:30.608Z,17.09
2019-04-26T01:29:36.384Z,17.07
2019-04-26T01:32:43.115Z,17.11
2019-04-26T01:35:47.654Z,17.09
2019-04-26T01:38:54.120Z,17.02
2019-04-26T01:42:02.238Z,16.97
2019-04-26T01:45:24.050Z,16.94
2019-04-26T01:48:46.543Z,16.90
2019-04-26T01:51:58.805Z,16.83
2019-04-26T01:55:02.460Z,16.79
2019-04-26T01:58:07.326Z,16.68
2019-04-26T02:01:30.236Z,16.64
2019-04-26T02:04:35.686Z,16.60
2019-04-26T02:07:40.303Z,16.53
2019-04-26T02:10:43.962Z,16.51
2019-04-26T02:13:47.809Z,16.42
2019-04-26T02:16:51.632Z,16.32
2019-04-26T02:19:58.330Z,16.21
2019-04-26T02:23:03.553Z,16.20
2019-04-26T02:26:26.666Z,16.10
2019-04-26T02:29:30.672Z,16.06
2019-04-26T02:32:36.541Z,16.05
2019-04-26T02:35:40.188Z,15.93
2019-04-26T02:38:44.528Z,15.98
2019-04-26T02:41:51.200Z,15.91
2019-04-26T02:45:20.361Z,15.94
2019-04-26T02:48:34.871Z,16.01
2019-04-26T02:51:42.685Z,15.93
2019-04-26T02:55:16.582Z,15.86
2019-04-26T02:58:23.214Z,15.74
2019-04-26T03:01:31.275Z,15.83
2019-04-26T03:04:36.481Z,15.75
2019-04-26T03:07:53.584Z,15.72
2019-04-26T03:11:00.195Z,15.66
2019-04-26T03:14:07.905Z,15.52
2019-04-26T03:17:14.208Z,15.37
2019-04-26T03:20:22.547Z,15.28
2019-04-26T03:23:57.495Z,15.27
2019-04-26T03:27:09.252Z,15.18
2019-04-26T03:30:28.093Z,15.16
2019-04-26T03:33:53.986Z,15.07
2019-04-26T03:37:25.228Z,14.92
2019-04-26T03:40:55.487Z,14.94
2019-04-26T03:44:14.114Z,14.79
2019-04-26T03:47:26.957Z,14.74
2019-04-26T03:50:37.747Z,14.77
2019-04-26T03:54:09.006Z,14.85
2019-04-26T03:57:44.697Z,14.85
2019-04-26T04:00:59.525Z,14.96
2019-04-26T04:04:05.351Z,15.06
2019-04-26T04:07:11.989Z,15.12
2019-04-26T04:10:30.527Z,15.12
2019-04-26T04:13:40.740Z,15.09
2019-04-26T04:16:57.358Z,15.05
2019-04-26T04:20:20.284Z,15.01
2019-04-26T04:23:26.870Z,15.04
2019-04-26T04:26:33.465Z,14.99
2019-04-26T04:29:57.595Z,14.89
2019-04-26T04:33:06.994Z,14.90
2019-04-26T04:36:13.540Z,14.84
2019-04-26T04:39:23.029Z,14.78
2019-04-26T04:42:50.339Z,14.99
2019-04-26T04:46:23.207Z,14.97
2019-04-26T04:49:44.945Z,15.40
2019-04-26T04:52:52.145Z,15.14
2019-04-26T04:56:01.501Z,15.28
2019-04-26T04:59:14.033Z,15.27
2019-04-26T05:02:49.418Z,15.64
2019-04-26T05:06:07.524Z,15.26
2019-04-26T05:09:14.366Z,15.59
2019-04-26T05:12:21.085Z,16.02
2019-04-26T05:15:41.006Z,16.34
2019-04-26T05:19:26.014Z,16.44
2019-04-26T05:22:55.455Z,16.37
2019-04-26T05:26:27.206Z,17.06
2019-04-26T05:30:02.734Z,17.29
2019-04-26T05:33:27.503Z,17.55
2019-04-26T05:36:39.946Z,16.23
2019-04-26T05:40:04.339Z,16.78
2019-04-26T05:46:57.889Z,17.70
2019-04-26T05:50:32.621Z,17.12
2019-04-26T05:54:07.808Z,16.21
2019-04-26T05:57:25.062Z,16.40
2019-04-26T06:00:41.954Z,16.03
2019-04-26T06:04:12.451Z,15.99
2019-04-26T06:07:56.295Z,16.50
2019-04-26T06:11:04.565Z,16.23
2019-04-26T06:14:33.803Z,15.96
2019-04-26T06:18:00.163Z,16.30
2019-04-26T06:21:09.384Z,16.30
2019-04-26T06:24:27.772Z,16.56
2019-04-26T06:27:39.027Z,16.29
2019-04-26T06:30:54.453Z,16.17
2019-04-26T06:34:07.639Z,15.90
2019-04-26T06:37:18.694Z,16.21
2019-04-26T06:40:28.077Z,16.52
2019-04-26T06:43:36.552Z,17.09
2019-04-26T06:47:05.261Z,17.16
2019-04-26T06:50:19.240Z,17.65
2019-04-26T06:53:44.426Z,17.82
2019-04-26T06:57:16.824Z,17.80
2019-04-26T07:00:24.703Z,17.53
2019-04-26T07:03:40.169Z,18.23
2019-04-26T07:06:49.914Z,17.40
2019-04-26T07:10:06.280Z,18.15
2019-04-26T07:13:42.200Z,18.72
2019-04-26T07:16:53.440Z,18.08
2019-04-26T07:20:17.863Z,17.89
2019-04-26T07:23:47.038Z,17.74
2019-04-26T07:27:17.480Z,18.25
2019-04-26T07:30:35.997Z,18.69
2019-04-26T07:33:59.177Z,18.65
2019-04-26T07:37:22.100Z,19.25
2019-04-26T07:40:39.446Z,19.29
2019-04-26T07:43:50.253Z,19.53
2019-04-26T07:47:14.278Z,18.82
2019-04-26T07:50:48.563Z,18.81
2019-04-26T07:54:19.560Z,18.84
2019-04-26T07:57:51.858Z,19.50
2019-04-26T08:01:24.556Z,19.63
2019-04-26T08:04:33.478Z,19.63
2019-04-26T08:07:42.697Z,20.56
2019-04-26T08:11:11.189Z,19.95
2019-04-26T08:14:17.867Z,21.09
2019-04-26T08:17:29.711Z,20.88
2019-04-26T08:20:41.058Z,21.75
2019-04-26T08:23:52.427Z,21.45
2019-04-26T08:27:08.879Z,21.73
2019-04-26T08:30:18.914Z,21.88
2019-04-26T08:33:26.039Z,21.99
2019-04-26T08:36:33.859Z,21.37
2019-04-26T08:39:45.528Z,21.72
2019-04-26T08:42:53.400Z,21.70
2019-04-26T08:46:20.203Z,22.45
2019-04-26T08:49:30.057Z,22.77
2019-04-26T08:52:37.459Z,22.27
2019-04-26T08:55:44.413Z,22.00
2019-04-26T08:58:51.117Z,22.90
2019-04-26T09:01:58.671Z,23.29
2019-04-26T09:05:22.665Z,22.58
2019-04-26T09:08:29.507Z,22.57
2019-04-26T09:11:36.075Z,21.69
2019-04-26T09:14:42.755Z,22.20
2019-04-26T09:17:46.351Z,22.72
2019-04-26T09:20:49.972Z,22.06
2019-04-26T09:24:03.995Z,22.18
2019-04-26T09:27:25.292Z,24.58
2019-04-26T09:30:34.403Z,23.02
2019-04-26T09:33:40.615Z,22.88
2019-04-26T09:36:44.389Z,22.56
2019-04-26T09:39:48.046Z,23.65
2019-04-26T09:43:02.791Z,23.38
2019-04-26T09:46:24.523Z,25.00
2019-04-26T09:49:29.832Z,25.42
2019-04-26T09:52:35.236Z,25.51
2019-04-26T09:55:38.949Z,24.69
2019-04-26T09:58:42.592Z,26.17
2019-04-26T10:01:46.332Z,24.19
2019-04-26T10:04:50.104Z,25.04
2019-04-26T10:07:53.971Z,25.63
2019-04-26T10:10:57.606Z,26.05
2019-04-26T10:14:08.674Z,25.71
2019-04-26T10:17:15.808Z,26.78
2019-04-26T10:20:19.173Z,26.10
2019-04-26T10:23:22.763Z,25.90
2019-04-26T10:26:28.045Z,27.09
2019-04-26T10:29:31.795Z,27.73
2019-04-26T10:32:35.532Z,24.59
2019-04-26T10:35:39.195Z,23.94
2019-04-26T10:38:42.771Z,23.04
2019-04-26T10:41:46.363Z,24.17
2019-04-26T10:44:49.969Z,25.72
2019-04-26T10:47:53.647Z,24.43
2019-04-26T10:50:57.300Z,24.19
2019-04-26T10:54:05.917Z,25.06
2019-04-26T10:57:22.975Z,26.40
2019-04-26T11:00:37.211Z,25.04
2019-04-26T11:03:40.830Z,26.78
2019-04-26T11:06:44.407Z,26.14
2019-04-26T11:09:47.992Z,27.83
2019-04-26T11:12:51.588Z,28.42
2019-04-26T11:15:55.309Z,28.33
2019-04-26T11:19:01.231Z,25.87
2019-04-26T11:22:05.972Z,27.41
2019-04-26T11:25:09.854Z,30.99
2019-04-26T11:28:13.560Z,29.86
2019-04-26T11:31:23.378Z,28.86
2019-04-26T11:34:32.808Z,24.03
2019-04-26T11:37:36.787Z,24.84
2019-04-26T11:40:44.471Z,25.89
2019-04-26T11:43:52.567Z,27.69
2019-04-26T11:46:54.312Z,25.55
2019-04-26T11:50:00.039Z,25.10
2019-04-26T11:53:06.277Z,27.53
2019-04-26T11:56:14.579Z,25.71
2019-04-26T11:59:18.154Z,27.13
2019-04-26T12:02:23.373Z,26.39
2019-04-26T12:05:34.434Z,26.04
2019-04-26T12:08:48.782Z,25.66
2019-04-26T12:12:04.015Z,24.87
2019-04-26T12:14:57.784Z,25.31
2019-04-26T12:18:01.410Z,25.93
2019-04-26T12:21:05.299Z,24.64
2019-04-26T12:24:08.916Z,24.02
2019-04-26T12:27:12.651Z,24.90
2019-04-26T12:30:16.848Z,25.41
2019-04-26T12:33:20.536Z,24.98
2019-04-26T12:36:24.136Z,24.23
2019-04-26T12:39:32.364Z,23.96
2019-04-26T12:42:35.038Z,23.53
2019-04-26T12:45:43.050Z,23.51
2019-04-26T12:48:49.915Z,24.05
2019-04-26T12:51:52.291Z,23.75
2019-04-26T12:54:57.743Z,24.23
2019-04-26T12:58:01.455Z,24.26
2019-04-26T13:01:07.856Z,24.48
2019-04-26T13:04:11.499Z,24.45
2019-04-26T13:07:23.799Z,25.51
2019-04-26T13:10:26.659Z,25.06
2019-04-26T13:13:31.905Z,25.06
2019-04-26T13:16:37.131Z,25.77
2019-04-26T13:19:40.720Z,25.32
2019-04-26T13:22:46.121Z,25.80
2019-04-26T13:25:49.674Z,24.62
2019-04-26T13:28:57.016Z,24.71
2019-04-26T13:31:58.672Z,24.12
2019-04-26T13:35:02.284Z,24.21
2019-04-26T13:38:08.763Z,25.48
2019-04-26T13:41:15.474Z,28.05
2019-04-26T13:44:20.714Z,26.44
2019-04-26T13:47:50.264Z,24.81
2019-04-26T13:54:46.023Z,22.75
2019-04-26T13:57:56.779Z,21.96
2019-04-26T14:01:00.774Z,21.55
2019-04-26T14:04:10.639Z,20.82
2019-04-26T14:07:14.404Z,20.90
2019-04-26T14:10:18.235Z,21.06
2019-04-26T14:13:24.974Z,21.15
2019-04-26T14:16:27.976Z,21.31
2019-04-26T14:19:32.193Z,20.30
2019-04-26T14:22:40.976Z,19.98
2019-04-26T14:25:55.498Z,20.26
2019-04-26T14:28:59.771Z,20.16
2019-04-26T14:32:05.712Z,20.18
2019-04-26T14:35:11.481Z,20.28
2019-04-26T14:38:27.076Z,20.20
2019-04-26T14:41:23.773Z,20.21
2019-04-26T14:44:31.202Z,20.01
2019-04-26T14:47:46.772Z,19.78
2019-04-26T14:50:43.093Z,19.86
2019-04-26T14:53:46.654Z,19.92
2019-04-26T14:56:55.347Z,19.72
2019-04-26T14:59:59.822Z,18.96
2019-04-26T15:03:24.096Z,18.84
2019-04-26T15:06:29.381Z,18.97
2019-04-26T15:09:36.072Z,18.83
2019-04-26T15:12:47.033Z,18.99
2019-04-26T15:15:49.748Z,18.97
2019-04-26T15:18:56.532Z,18.63
2019-04-26T15:22:04.081Z,18.41
2019-04-26T15:25:11.549Z,18.08
2019-04-26T15:28:18.041Z,17.67
2019-04-26T15:31:24.513Z,17.67
2019-04-26T15:34:28.258Z,17.40
2019-04-26T15:37:34.724Z,17.19
2019-04-26T15:40:56.378Z,17.36
2019-04-26T15:44:04.252Z,17.19
2019-04-26T15:47:24.135Z,17.46
2019-04-26T15:50:29.488Z,17.32
2019-04-26T15:53:34.589Z,16.97
2019-04-26T15:56:38.190Z,17.31
2019-04-26T15:59:43.082Z,17.39
2019-04-26T16:02:46.921Z,17.32
2019-04-26T16:05:50.514Z,17.14
2019-04-26T16:08:57.692Z,16.87
2019-04-26T16:12:15.222Z,16.98
2019-04-26T16:15:14.856Z,16.94
2019-04-26T16:18:24.299Z,16.92
2019-04-26T16:21:27.939Z,17.15
2019-04-26T16:24:34.199Z,16.70
2019-04-26T16:27:36.953Z,16.53
2019-04-26T16:30:45.180Z,16.53
2019-04-26T16:34:06.582Z,16.39
2019-04-26T16:37:09.893Z,16.55
2019-04-26T16:40:19.386Z,16.74
2019-04-26T16:43:36.980Z,16.95
2019-04-26T16:46:33.273Z,16.81
2019-04-26T16:49:41.906Z,16.58
2019-04-26T16:52:43.504Z,16.47
2019-04-26T16:55:52.158Z,16.39
2019-04-26T16:58:54.958Z,16.33
2019-04-26T17:02:01.571Z,15.77
2019-04-26T17:05:16.794Z,15.85
2019-04-26T17:08:19.004Z,15.68
2019-04-26T17:11:18.900Z,15.31
2019-04-26T17:14:24.548Z,15.32
2019-04-26T17:17:27.869Z,15.26
2019-04-26T17:20:49.936Z,15.20
2019-04-26T17:23:55.191Z,15.00
2019-04-26T17:27:27.349Z,14.95
2019-04-26T17:34:09.002Z,14.72
2019-04-26T17:37:17.021Z,14.92
2019-04-26T17:40:17.985Z,15.06
2019-04-26T17:43:21.756Z,14.72
2019-04-26T17:46:25.282Z,14.69
2019-04-26T17:49:39.060Z,14.48
2019-04-26T17:52:40.906Z,14.56
2019-04-26T17:55:52.998Z,14.43
2019-04-26T17:58:55.046Z,14.35
2019-04-26T18:02:01.108Z,14.35
2019-04-26T18:08:41.148Z,13.99
2019-04-26T18:11:41.152Z,14.20
2019-04-26T18:14:46.403Z,14.03
2019-04-26T18:35:58.899Z,13.10
2019-04-26T18:39:13.675Z,13.00
2019-04-26T18:42:43.449Z,12.18
2019-04-26T18:46:53.470Z,12.38
2019-04-26T18:48:57.695Z,11.89
2019-04-26T18:52:05.527Z,11.64
2019-04-26T18:55:21.575Z,11.60
2019-04-26T18:58:30.252Z,11.48
2019-04-26T19:01:41.951Z,11.42
2019-04-26T19:04:47.975Z,11.41
2019-04-26T19:07:51.673Z,11.22
2019-04-26T19:11:00.718Z,10.95
2019-04-26T19:14:06.409Z,11.23
2019-04-26T19:17:12.075Z,10.92
2019-04-26T19:20:24.690Z,11.04
2019-04-26T19:23:29.893Z,11.03
2019-04-26T19:26:35.296Z,11.15
2019-04-26T19:29:43.257Z,11.15
2019-04-26T19:32:45.648Z,11.16
2019-04-26T19:35:49.300Z,11.20
2019-04-26T19:38:56.255Z,11.23
2019-04-26T19:42:02.652Z,11.33
2019-04-26T19:45:19.574Z,11.16
2019-04-26T19:48:20.492Z,11.23
2019-04-26T19:51:39.605Z,11.33
2019-04-26T19:54:50.527Z,11.20
2019-04-26T19:58:04.302Z,11.27
2019-04-26T20:01:09.754Z,11.18
2019-04-26T20:04:14.833Z,11.23
2019-04-26T20:07:18.359Z,11.13
2019-04-26T20:10:23.269Z,11.06
2019-04-26T20:13:31.569Z,11.17
2019-04-26T20:16:36.443Z,11.40
2019-04-26T20:19:42.623Z,11.36
2019-04-26T20:22:52.189Z,11.24
2019-04-26T20:26:06.530Z,10.88
2019-04-26T20:29:11.453Z,10.69
2019-04-26T20:32:29.230Z,10.50
2019-04-26T20:35:32.850Z,10.42
2019-04-26T20:38:43.616Z,10.21
2019-04-26T20:41:42.388Z,10.15
2019-04-26T20:44:50.982Z,10.13
2019-04-26T20:47:55.495Z,10.03
2019-04-26T20:50:57.086Z,10.08
2019-04-26T20:54:02.372Z,10.06
2019-04-26T20:57:06.148Z,10.13
2019-04-26T21:00:12.649Z,10.08
2019-04-26T21:03:23.657Z,9.95
2019-04-26T21:06:22.608Z,9.91
2019-04-26T21:09:26.827Z,10.14
2019-04-26T21:12:31.410Z,9.98
2019-04-26T21:15:36.083Z,10.07
2019-04-26T21:18:43.472Z,10.04
2019-04-26T21:21:48.342Z,10.33
2019-04-26T21:25:04.720Z,10.35
2019-04-26T21:28:12.724Z,10.02
2019-04-26T21:31:24.083Z,9.97
2019-04-26T21:34:29.276Z,9.88
2019-04-26T21:37:37.230Z,10.16
2019-04-26T21:40:43.753Z,10.00
2019-04-26T21:43:47.383Z,9.95
2019-04-26T21:46:58.511Z,9.98
2019-04-26T21:50:00.732Z,9.87
2019-04-26T21:53:07.029Z,9.85
2019-04-26T21:56:11.579Z,9.86
2019-04-26T21:59:15.877Z,9.87
2019-04-26T22:02:20.147Z,10.04
2019-04-26T22:05:24.018Z,10.16
2019-04-26T22:08:30.407Z,9.97
2019-04-26T22:11:34.103Z,10.05
2019-04-26T22:14:39.373Z,9.95
2019-04-26T22:18:01.188Z,9.82
2019-04-26T22:21:12.803Z,9.75
2019-04-26T22:24:23.345Z,9.72
2019-04-26T22:27:26.917Z,9.70
2019-04-26T22:30:30.566Z,9.92
2019-04-26T22:33:34.291Z,10.11
2019-04-26T22:36:38.678Z,10.02
2019-04-26T22:39:47.627Z,10.11
2019-04-26T22:42:54.409Z,10.18
2019-04-26T22:46:02.922Z,10.03
2019-04-26T22:49:06.626Z,10.08
2019-04-26T22:52:11.985Z,10.11
2019-04-26T22:55:29.199Z,10.24
2019-04-26T22:58:25.545Z,10.28
2019-04-26T23:01:35.007Z,10.20
2019-04-26T23:04:40.562Z,10.11
2019-04-26T23:07:47.245Z,10.16
2019-04-26T23:10:53.127Z,10.20
2019-04-26T23:14:03.312Z,10.25
2019-04-26T23:17:14.154Z,10.23
2019-04-26T23:20:19.395Z,10.19
2019-04-26T23:23:24.739Z,10.19
2019-04-26T23:26:28.374Z,10.31
2019-04-26T23:29:33.666Z,10.37
2019-04-26T23:32:38.862Z,10.03
2019-04-26T23:35:45.787Z,9.96
2019-04-26T23:38:47.833Z,9.82
2019-04-26T23:41:51.380Z,9.83
2019-04-26T23:44:55.006Z,9.79
2019-04-26T23:47:58.538Z,9.82
2019-04-26T23:51:05.045Z,9.80
2019-04-26T23:54:07.362Z,9.79
2019-04-26T23:57:10.909Z,9.78
